createdAt,value
2024-03-20T00:00:47.540Z,27.40
2024-03-20T00:03:39.353Z,26.60
2024-03-20T00:06:11.048Z,30.80
2024-03-20T00:08:42.829Z,24.50
2024-03-20T00:11:14.578Z,20.10
2024-03-20T00:13:46.335Z,20.00
2024-03-20T00:16:18.128Z,19.80
2024-03-20T00:18:49.768Z,20.10
2024-03-20T00:21:22.905Z,23.60
2024-03-20T00:23:54.532Z,28.00
2024-03-20T00:26:26.268Z,35.70
2024-03-20T00:28:58.097Z,34.10
2024-03-20T00:31:29.619Z,29.30
2024-03-20T00:34:01.527Z,29.20
2024-03-20T00:36:33.541Z,24.50
2024-03-20T00:39:07.009Z,26.70
2024-03-20T00:41:38.644Z,24.30
2024-03-20T00:44:10.460Z,26.40
2024-03-20T00:46:42.200Z,27.70
2024-03-20T00:49:14.032Z,34.00
2024-03-20T00:51:45.809Z,30.50
2024-03-20T00:54:17.339Z,28.50
2024-03-20T00:56:48.880Z,28.40
2024-03-20T00:59:21.568Z,29.50
2024-03-20T01:01:53.021Z,30.30
2024-03-20T01:04:25.028Z,31.60
2024-03-20T01:06:56.892Z,36.70
2024-03-20T01:09:28.676Z,31.40
2024-03-20T01:12:00.509Z,31.50
2024-03-20T01:14:32.174Z,31.70
2024-03-20T01:17:03.777Z,32.70
2024-03-20T01:19:35.619Z,36.20
2024-03-20T01:22:07.575Z,36.80
2024-03-20T01:24:39.450Z,34.20
2024-03-20T01:27:11.117Z,30.80
2024-03-20T01:29:42.900Z,29.40
2024-03-20T01:32:14.559Z,29.60
2024-03-20T01:34:46.344Z,23.30
2024-03-20T01:37:17.993Z,21.60
2024-03-20T01:39:49.803Z,23.30
2024-03-20T01:42:21.356Z,18.80
2024-03-20T01:45:10.861Z,19.70
2024-03-20T01:47:43.446Z,20.50
2024-03-20T01:50:16.681Z,19.00
2024-03-20T01:52:56.019Z,18.40
2024-03-20T01:55:27.871Z,19.80
2024-03-20T01:57:59.569Z,19.50
2024-03-20T02:00:31.583Z,20.40
2024-03-20T02:03:04.868Z,18.40
2024-03-20T02:05:36.747Z,20.20
2024-03-20T02:08:09.237Z,20.80
2024-03-20T02:10:41.061Z,21.10
2024-03-20T02:13:12.827Z,21.20
2024-03-20T02:15:44.592Z,22.30
2024-03-20T02:18:16.359Z,21.30
2024-03-20T02:20:48.064Z,21.50
2024-03-20T02:23:20.254Z,22.30
2024-03-20T02:25:51.859Z,20.70
2024-03-20T02:28:23.607Z,19.50
2024-03-20T02:30:55.202Z,17.80
2024-03-20T02:33:27.085Z,17.00
2024-03-20T02:35:59.008Z,17.30
2024-03-20T02:38:33.370Z,16.00
2024-03-20T02:41:06.109Z,15.50
2024-03-20T02:43:38.274Z,15.90
2024-03-20T02:46:09.955Z,15.40
2024-03-20T02:48:41.725Z,15.60
2024-03-20T02:51:13.268Z,18.00
2024-03-20T02:53:44.941Z,20.80
2024-03-20T02:56:17.031Z,19.10
2024-03-20T02:58:48.829Z,20.40
2024-03-20T03:01:20.459Z,21.10
2024-03-20T03:03:52.630Z,20.20
2024-03-20T03:06:24.413Z,20.10
2024-03-20T03:08:56.079Z,21.50
2024-03-20T03:11:28.444Z,19.60
2024-03-20T03:14:00.122Z,34.10
2024-03-20T03:16:31.924Z,59.40
2024-03-20T03:19:05.560Z,52.40
2024-03-20T03:21:38.173Z,53.90
2024-03-20T03:24:10.184Z,71.40
2024-03-20T03:26:42.292Z,69.20
2024-03-20T03:29:13.916Z,54.60
2024-03-20T03:31:45.776Z,45.80
2024-03-20T03:34:18.729Z,35.90
2024-03-20T03:36:50.455Z,31.60
2024-03-20T03:39:22.084Z,28.30
2024-03-20T03:41:53.913Z,29.10
2024-03-20T03:44:25.926Z,31.60
2024-03-20T03:46:57.721Z,30.40
2024-03-20T03:49:29.409Z,30.20
2024-03-20T03:52:01.176Z,28.20
2024-03-20T03:54:32.744Z,25.50
2024-03-20T03:57:05.102Z,27.20
2024-03-20T03:59:36.789Z,23.80
2024-03-20T04:02:09.807Z,22.30
2024-03-20T04:04:41.645Z,23.90
2024-03-20T04:07:13.494Z,25.10
2024-03-20T04:09:45.137Z,22.70
2024-03-20T04:12:17.014Z,23.10
2024-03-20T04:14:48.596Z,23.20
2024-03-20T04:17:20.247Z,24.70
2024-03-20T04:19:51.921Z,25.50
2024-03-20T04:22:23.673Z,28.10
2024-03-20T04:24:55.500Z,27.10
2024-03-20T04:27:27.196Z,28.50
2024-03-20T04:29:58.955Z,36.40
2024-03-20T04:32:31.510Z,36.60
2024-03-20T04:35:03.464Z,34.80
2024-03-20T04:37:35.316Z,38.90
2024-03-20T04:40:08.581Z,32.50
2024-03-20T04:42:40.481Z,29.70
2024-03-20T04:45:14.064Z,31.10
2024-03-20T04:47:45.875Z,32.30
2024-03-20T04:50:17.576Z,32.00
2024-03-20T04:53:01.724Z,32.20
2024-03-20T04:55:33.400Z,31.20
2024-03-20T04:58:05.364Z,30.30
2024-03-20T05:00:37.466Z,31.70
2024-03-20T05:03:09.348Z,29.50
2024-03-20T05:05:41.011Z,32.30
2024-03-20T05:08:12.923Z,24.40
2024-03-20T05:10:44.611Z,27.40
2024-03-20T05:13:16.504Z,22.00
2024-03-20T05:15:48.184Z,22.50
2024-03-20T05:18:20.057Z,29.00
2024-03-20T05:20:51.803Z,28.00
2024-03-20T05:23:23.876Z,24.20
2024-03-20T05:25:59.136Z,29.80
2024-03-20T05:31:01.083Z,30.40
2024-03-20T05:33:32.840Z,28.40
2024-03-20T05:36:04.912Z,28.30
2024-03-20T05:38:36.740Z,25.10
2024-03-20T05:41:08.401Z,23.30
2024-03-20T05:43:39.992Z,29.30
2024-03-20T05:46:11.766Z,50.50
2024-03-20T05:48:44.389Z,28.90
2024-03-20T05:51:16.192Z,30.60
2024-03-20T05:53:47.778Z,33.70
2024-03-20T05:56:19.863Z,33.30
2024-03-20T05:58:52.543Z,31.60
2024-03-20T06:01:25.054Z,27.00
2024-03-20T06:03:56.807Z,27.60
2024-03-20T06:06:29.420Z,26.80
2024-03-20T06:09:16.785Z,36.20
2024-03-20T06:11:48.670Z,42.90
2024-03-20T06:14:20.522Z,37.50
2024-03-20T06:16:52.308Z,35.10
2024-03-20T06:19:24.450Z,36.20
2024-03-20T06:21:56.230Z,40.50
2024-03-20T06:24:27.960Z,27.70
2024-03-20T06:26:59.524Z,29.60
2024-03-20T06:29:31.729Z,32.90
2024-03-20T06:32:03.454Z,21.70
2024-03-20T06:34:35.287Z,26.30
2024-03-20T06:37:11.495Z,31.20
2024-03-20T06:39:43.348Z,32.90
2024-03-20T06:42:17.545Z,37.60
2024-03-20T06:44:49.376Z,34.70
2024-03-20T06:47:24.406Z,40.00
2024-03-20T06:49:57.061Z,27.10
2024-03-20T06:52:28.943Z,26.00
2024-03-20T06:55:00.887Z,28.00
2024-03-20T06:57:32.646Z,18.10
2024-03-20T07:00:08.194Z,20.30
2024-03-20T07:02:40.293Z,19.70
2024-03-20T07:05:15.821Z,19.00
2024-03-20T07:07:47.927Z,18.10
2024-03-20T07:10:19.854Z,27.50
2024-03-20T07:12:51.730Z,18.80
2024-03-20T07:15:23.566Z,19.30
2024-03-20T07:17:55.371Z,19.80
2024-03-20T07:20:27.998Z,22.60
2024-03-20T07:23:00.002Z,19.40
2024-03-20T07:25:33.597Z,19.90
2024-03-20T07:30:37.336Z,22.70
2024-03-20T07:33:10.615Z,20.40
2024-03-20T07:35:48.676Z,23.40
2024-03-20T07:38:20.197Z,25.30
2024-03-20T07:40:55.669Z,18.60
2024-03-20T07:43:27.288Z,17.80
2024-03-20T07:45:58.992Z,27.90
2024-03-20T07:48:30.687Z,22.40
2024-03-20T07:51:02.566Z,20.00
2024-03-20T07:53:34.239Z,27.70
2024-03-20T07:56:06.544Z,26.30
2024-03-20T07:58:38.948Z,18.70
2024-03-20T08:01:12.739Z,15.90
2024-03-20T08:03:45.503Z,17.60
2024-03-20T08:06:17.246Z,18.10
2024-03-20T08:08:48.810Z,19.00
2024-03-20T08:11:20.627Z,19.10
2024-03-20T08:13:52.464Z,19.00
2024-03-20T08:16:24.111Z,24.00
2024-03-20T08:18:55.925Z,17.70
2024-03-20T08:21:28.226Z,26.70
2024-03-20T08:24:00.570Z,22.30
2024-03-20T08:26:32.808Z,17.70
2024-03-20T08:29:04.556Z,16.20
2024-03-20T08:31:36.434Z,21.80
2024-03-20T08:34:08.197Z,17.10
2024-03-20T08:36:40.077Z,27.50
2024-03-20T08:39:12.038Z,29.70
2024-03-20T08:41:44.013Z,26.30
2024-03-20T08:44:15.509Z,26.50
2024-03-20T08:46:47.256Z,22.70
2024-03-20T08:49:19.047Z,17.50
2024-03-20T08:51:50.886Z,18.50
2024-03-20T08:54:22.621Z,16.40
2024-03-20T08:56:54.351Z,16.30
2024-03-20T08:59:26.162Z,14.50
2024-03-20T09:01:57.893Z,18.70
2024-03-20T09:04:29.671Z,18.50
2024-03-20T09:07:01.524Z,17.70
2024-03-20T09:09:36.387Z,16.20
2024-03-20T09:12:57.092Z,14.80
2024-03-20T09:15:31.978Z,16.40
2024-03-20T09:18:03.618Z,15.60
2024-03-20T09:20:35.321Z,17.00
2024-03-20T09:23:07.752Z,14.90
2024-03-20T09:25:39.413Z,16.30
2024-03-20T09:28:11.191Z,16.80
2024-03-20T09:30:43.258Z,17.60
2024-03-20T09:33:15.205Z,17.40
2024-03-20T09:35:46.757Z,15.40
2024-03-20T09:38:18.224Z,17.30
2024-03-20T09:40:50.828Z,17.20
2024-03-20T09:43:23.886Z,21.80
2024-03-20T09:45:58.067Z,20.30
2024-03-20T09:48:37.163Z,16.80
2024-03-20T09:51:14.067Z,19.10
2024-03-20T09:53:47.497Z,24.20
2024-03-20T09:56:22.034Z,74.20
2024-03-20T09:58:54.822Z,37.40
2024-03-20T10:01:26.938Z,26.90
2024-03-20T10:03:59.559Z,28.40
2024-03-20T10:06:32.692Z,19.50
2024-03-20T10:09:08.594Z,21.80
2024-03-20T10:11:40.039Z,23.90
2024-03-20T10:14:14.624Z,18.20
2024-03-20T10:16:49.672Z,24.70
2024-03-20T10:19:26.646Z,18.60
2024-03-20T10:21:58.257Z,17.80
2024-03-20T10:24:32.232Z,15.80
2024-03-20T10:27:06.737Z,14.80
2024-03-20T10:29:40.891Z,16.70
2024-03-20T10:32:13.877Z,16.20
2024-03-20T10:34:47.811Z,16.20
2024-03-20T10:37:20.534Z,15.10
2024-03-20T10:39:54.371Z,17.00
2024-03-20T10:42:26.714Z,35.90
2024-03-20T10:44:59.189Z,21.80
2024-03-20T10:47:31.027Z,17.10
2024-03-20T10:50:04.275Z,14.80
2024-03-20T10:52:36.648Z,15.40
2024-03-20T10:55:12.562Z,16.50
2024-03-20T10:57:44.179Z,14.20
2024-03-20T11:00:20.918Z,14.30
2024-03-20T11:02:52.727Z,14.50
2024-03-20T11:05:41.733Z,14.60
2024-03-20T11:08:13.528Z,18.80
2024-03-20T11:10:50.446Z,15.80
2024-03-20T11:13:25.258Z,14.40
2024-03-20T11:15:56.934Z,16.50
2024-03-20T11:18:28.894Z,16.00
2024-03-20T11:21:01.692Z,19.40
2024-03-20T11:23:34.581Z,18.50
2024-03-20T11:26:07.939Z,16.40
2024-03-20T11:28:39.642Z,14.30
2024-03-20T11:31:11.413Z,17.30
2024-03-20T11:33:44.344Z,17.20
2024-03-20T11:36:19.640Z,17.20
2024-03-20T11:38:51.876Z,16.80
2024-03-20T11:41:23.581Z,15.30
2024-03-20T11:43:55.187Z,14.80
2024-03-20T11:46:27.146Z,18.80
2024-03-20T11:48:59.073Z,18.90
2024-03-20T11:51:30.949Z,16.00
2024-03-20T11:54:04.780Z,17.00
2024-03-20T11:56:38.428Z,17.00
2024-03-20T11:59:10.790Z,17.40
2024-03-20T12:01:42.506Z,14.80
2024-03-20T12:04:14.560Z,19.20
2024-03-20T12:06:46.552Z,20.70
2024-03-20T12:09:18.823Z,15.80
2024-03-20T12:11:50.425Z,16.90
2024-03-20T12:14:22.249Z,14.70
2024-03-20T12:16:54.752Z,16.20
2024-03-20T12:19:26.297Z,14.60
2024-03-20T12:21:58.101Z,14.60
2024-03-20T12:24:29.699Z,15.50
2024-03-20T12:27:01.476Z,14.90
2024-03-20T12:29:33.501Z,14.30
2024-03-20T12:32:05.824Z,17.20
2024-03-20T12:34:38.159Z,19.90
2024-03-20T12:37:12.298Z,16.90
2024-03-20T12:39:45.664Z,14.00
2024-03-20T12:42:17.447Z,15.60
2024-03-20T12:44:49.225Z,14.60
2024-03-20T12:47:21.145Z,14.80
2024-03-20T12:49:53.880Z,16.20
2024-03-20T12:52:26.511Z,13.70
2024-03-20T12:54:59.531Z,12.40
2024-03-20T12:57:31.140Z,11.70
2024-03-20T13:00:03.283Z,11.70
2024-03-20T13:02:35.735Z,13.70
2024-03-20T13:05:10.561Z,15.60
2024-03-20T13:07:42.581Z,12.70
2024-03-20T13:10:14.899Z,13.40
2024-03-20T13:12:46.822Z,11.80
2024-03-20T13:15:18.445Z,11.80
2024-03-20T13:17:50.349Z,13.70
2024-03-20T13:20:22.306Z,12.40
2024-03-20T13:22:53.951Z,14.60
2024-03-20T13:25:30.280Z,14.70
2024-03-20T13:28:02.809Z,12.70
2024-03-20T13:30:34.818Z,14.60
2024-03-20T13:33:07.007Z,13.00
2024-03-20T13:35:38.588Z,14.50
2024-03-20T13:38:15.313Z,17.20
2024-03-20T13:40:52.352Z,17.40
2024-03-20T13:43:40.290Z,19.00
2024-03-20T13:46:13.047Z,15.80
2024-03-20T13:48:45.099Z,14.50
2024-03-20T13:51:18.972Z,15.60
2024-03-20T13:53:52.518Z,14.90
2024-03-20T13:56:24.364Z,13.10
2024-03-20T13:58:56.173Z,14.90
2024-03-20T14:01:28.391Z,13.70
2024-03-20T14:04:00.805Z,15.60
2024-03-20T14:06:32.328Z,17.50
2024-03-20T14:09:04.116Z,20.70
2024-03-20T14:11:35.742Z,16.90
2024-03-20T14:14:07.647Z,22.00
2024-03-20T14:16:39.666Z,23.50
2024-03-20T14:19:11.442Z,29.60
2024-03-20T14:21:43.042Z,26.30
2024-03-20T14:24:16.948Z,16.40
2024-03-20T14:26:49.377Z,19.50
2024-03-20T14:29:21.003Z,31.00
2024-03-20T14:31:52.976Z,60.60
2024-03-20T14:34:25.111Z,26.70
2024-03-20T14:36:56.937Z,21.00
2024-03-20T14:39:29.284Z,21.00
2024-03-20T14:42:00.925Z,138.60
2024-03-20T14:44:33.475Z,75.70
2024-03-20T14:47:07.210Z,38.80
2024-03-20T14:49:38.936Z,26.10
2024-03-20T14:52:15.845Z,19.20
2024-03-20T14:54:47.490Z,35.20
2024-03-20T14:57:19.502Z,25.80
2024-03-20T14:59:51.149Z,30.70
2024-03-20T15:02:29.562Z,19.20
2024-03-20T15:05:01.144Z,17.20
2024-03-20T15:07:33.322Z,22.60
2024-03-20T15:10:05.266Z,30.10
2024-03-20T15:12:36.949Z,32.70
2024-03-20T15:15:10.896Z,19.00
2024-03-20T15:17:43.052Z,22.80
2024-03-20T15:20:14.605Z,17.40
2024-03-20T15:22:46.879Z,16.00
2024-03-20T15:25:18.638Z,18.90
2024-03-20T15:27:51.024Z,21.50
2024-03-20T15:30:22.697Z,19.40
2024-03-20T15:32:54.424Z,19.30
2024-03-20T15:35:26.235Z,38.30
2024-03-20T15:37:58.115Z,34.90
2024-03-20T15:40:29.793Z,34.40
2024-03-20T15:43:01.395Z,49.20
2024-03-20T15:45:32.873Z,64.50
2024-03-20T15:48:06.596Z,35.90
2024-03-20T15:50:39.415Z,46.60
2024-03-20T15:53:17.237Z,53.30
2024-03-20T15:58:50.613Z,33.40
2024-03-20T16:01:21.697Z,60.40
2024-03-20T16:03:51.033Z,44.20
2024-03-20T16:06:20.530Z,68.00
2024-03-20T16:08:49.262Z,97.70
2024-03-20T16:11:18.084Z,57.90
2024-03-20T16:13:48.028Z,44.10
2024-03-20T16:16:19.992Z,41.70
2024-03-20T16:18:48.939Z,43.10
2024-03-20T16:21:17.563Z,45.50
2024-03-20T16:23:46.300Z,34.50
2024-03-20T16:26:15.801Z,121.00
2024-03-20T16:28:45.426Z,129.20
2024-03-20T16:31:14.270Z,98.40
2024-03-20T16:33:42.985Z,171.30
2024-03-20T16:36:13.847Z,147.00
2024-03-20T16:38:44.039Z,111.80
2024-03-20T16:41:19.919Z,71.00
2024-03-20T16:43:54.827Z,57.00
2024-03-20T16:46:23.726Z,60.70
2024-03-20T16:48:52.482Z,69.30
2024-03-20T16:51:21.284Z,54.30
2024-03-20T16:53:49.937Z,49.70
2024-03-20T16:56:18.667Z,62.50
2024-03-20T16:58:47.134Z,117.30
2024-03-20T17:01:15.901Z,96.00
2024-03-20T17:03:45.121Z,72.70
2024-03-20T17:06:13.540Z,76.70
2024-03-20T17:08:42.639Z,75.40
2024-03-20T17:11:11.331Z,69.00
2024-03-20T17:13:40.059Z,73.50
2024-03-20T17:16:08.873Z,83.90
2024-03-20T17:18:37.491Z,72.20
2024-03-20T17:21:07.650Z,65.90
2024-03-20T17:23:36.248Z,69.30
2024-03-20T17:26:05.515Z,78.70
2024-03-20T17:28:35.295Z,70.60
2024-03-20T17:31:04.374Z,56.40
2024-03-20T17:33:33.062Z,49.30
2024-03-20T17:36:07.349Z,53.20
2024-03-20T17:38:36.134Z,46.70
2024-03-20T17:41:05.112Z,40.10
2024-03-20T17:43:34.031Z,45.20
2024-03-20T17:46:04.239Z,45.00
2024-03-20T17:48:33.175Z,39.70
2024-03-20T17:51:02.756Z,39.70
2024-03-20T17:53:32.038Z,44.00
2024-03-20T17:56:00.505Z,48.60
2024-03-20T17:58:29.298Z,47.90
2024-03-20T18:00:57.899Z,47.50
2024-03-20T18:03:26.670Z,70.40
2024-03-20T18:05:55.696Z,49.90
2024-03-20T18:08:24.391Z,44.70
2024-03-20T18:10:53.281Z,43.50
2024-03-20T18:13:22.489Z,62.50
2024-03-20T18:15:55.219Z,56.70
2024-03-20T18:18:24.698Z,70.30
2024-03-20T18:20:53.381Z,66.00
2024-03-20T18:23:22.826Z,83.10
2024-03-20T18:25:51.476Z,56.80
2024-03-20T18:28:20.244Z,43.60
2024-03-20T18:30:49.600Z,60.80
2024-03-20T18:33:18.587Z,52.20
2024-03-20T18:35:47.585Z,47.10
2024-03-20T18:38:16.410Z,45.20
2024-03-20T18:40:45.686Z,43.50
2024-03-20T18:43:14.209Z,54.10
2024-03-20T18:45:42.932Z,51.60
2024-03-20T18:48:14.271Z,41.80
2024-03-20T18:50:43.494Z,35.70
2024-03-20T18:53:12.020Z,37.60
2024-03-20T18:55:40.870Z,47.40
2024-03-20T18:58:09.384Z,45.70
2024-03-20T19:00:38.100Z,44.50
2024-03-20T19:03:06.737Z,40.10
2024-03-20T19:05:36.023Z,36.50
2024-03-20T19:08:05.846Z,34.60
2024-03-20T19:10:34.319Z,36.20
2024-03-20T19:13:03.046Z,43.70
2024-03-20T19:15:32.843Z,34.90
2024-03-20T19:18:01.808Z,33.10
2024-03-20T19:20:30.689Z,29.30
2024-03-20T19:22:59.370Z,25.90
2024-03-20T19:25:32.553Z,28.80
2024-03-20T19:28:01.384Z,22.90
2024-03-20T19:30:30.072Z,26.20
2024-03-20T19:33:00.722Z,25.50
2024-03-20T19:35:29.336Z,28.00
2024-03-20T19:37:58.379Z,26.20
2024-03-20T19:40:28.143Z,38.20
2024-03-20T19:42:56.785Z,48.10
2024-03-20T19:45:25.816Z,34.60
2024-03-20T19:47:54.612Z,28.40
2024-03-20T19:50:23.332Z,24.90
2024-03-20T19:52:52.286Z,34.20
2024-03-20T19:55:21.194Z,22.40
2024-03-20T19:57:50.293Z,30.20
2024-03-20T20:00:22.259Z,26.80
2024-03-20T20:02:53.931Z,35.60
2024-03-20T20:05:22.675Z,33.30
2024-03-20T20:07:51.518Z,30.60
2024-03-20T20:10:20.406Z,27.40
2024-03-20T20:12:49.464Z,33.90
2024-03-20T20:15:19.683Z,35.00
2024-03-20T20:17:48.352Z,34.60
2024-03-20T20:20:18.847Z,36.40
2024-03-20T20:22:47.997Z,34.60
2024-03-20T20:25:18.162Z,52.90
2024-03-20T20:27:49.119Z,90.70
2024-03-20T20:30:18.774Z,104.30
2024-03-20T20:32:48.552Z,77.50
2024-03-20T20:35:17.092Z,38.70
2024-03-20T20:37:45.832Z,50.00
2024-03-20T20:40:16.839Z,47.80
2024-03-20T20:42:45.572Z,78.90
2024-03-20T20:45:14.264Z,72.60
2024-03-20T20:47:42.911Z,49.70
2024-03-20T20:50:12.232Z,77.10
2024-03-20T20:52:40.847Z,65.40
2024-03-20T20:55:13.195Z,60.40
2024-03-20T20:57:42.005Z,59.30
2024-03-20T21:00:14.169Z,93.70
2024-03-20T21:03:01.074Z,115.50
2024-03-20T21:05:44.431Z,78.20
2024-03-20T21:08:31.482Z,48.60
2024-03-20T21:11:26.659Z,53.10
2024-03-20T21:14:13.362Z,47.80
2024-03-20T21:17:00.383Z,40.40
2024-03-20T21:19:47.703Z,45.80
2024-03-20T21:22:16.732Z,46.20
2024-03-20T21:24:46.004Z,53.90
2024-03-20T21:27:14.687Z,62.20
2024-03-20T21:29:43.594Z,37.50
2024-03-20T21:32:12.427Z,29.80
2024-03-20T21:34:41.465Z,47.60
2024-03-20T21:37:11.054Z,45.60
2024-03-20T21:39:40.842Z,46.60
2024-03-20T21:42:10.788Z,24.00
2024-03-20T21:44:40.635Z,37.30
2024-03-20T21:47:12.058Z,42.60
2024-03-20T21:49:41.777Z,47.00
2024-03-20T21:52:10.829Z,61.80
2024-03-20T21:54:39.573Z,60.00
2024-03-20T21:57:08.218Z,58.60
2024-03-20T21:59:39.204Z,55.20
2024-03-20T22:02:16.841Z,44.60
2024-03-20T22:04:45.647Z,52.50
2024-03-20T22:07:14.372Z,40.90
2024-03-20T22:10:05.920Z,39.20
2024-03-20T22:12:32.734Z,47.70
2024-03-20T22:15:01.258Z,53.50
2024-03-20T22:17:31.271Z,44.10
2024-03-20T22:20:00.193Z,51.60
2024-03-20T22:22:28.893Z,56.50
2024-03-20T22:24:57.579Z,54.50
2024-03-20T22:27:26.384Z,71.80
2024-03-20T22:29:54.890Z,64.90
2024-03-20T22:32:23.771Z,52.80
2024-03-20T22:34:52.333Z,57.80
2024-03-20T22:37:21.850Z,41.70
2024-03-20T22:39:50.480Z,27.00
2024-03-20T22:42:19.362Z,41.80
2024-03-20T22:44:47.885Z,44.40
2024-03-20T22:47:18.452Z,37.80
2024-03-20T22:49:48.827Z,33.50
2024-03-20T22:52:17.593Z,31.10
2024-03-20T22:54:46.199Z,33.90
2024-03-20T22:57:15.043Z,25.30
2024-03-20T22:59:43.591Z,22.30
2024-03-20T23:02:12.058Z,19.30
2024-03-20T23:04:42.499Z,18.80
2024-03-20T23:07:11.167Z,20.30
2024-03-20T23:09:39.847Z,20.70
2024-03-20T23:12:10.255Z,21.20
2024-03-20T23:14:39.186Z,20.90
2024-03-20T23:17:10.745Z,23.40
2024-03-20T23:19:39.527Z,23.50
2024-03-20T23:22:08.166Z,21.90
2024-03-20T23:24:36.876Z,23.40
2024-03-20T23:27:05.921Z,20.50
2024-03-20T23:29:34.715Z,21.20
2024-03-20T23:32:04.215Z,21.60
2024-03-20T23:34:33.811Z,23.30
2024-03-20T23:37:02.800Z,23.20
2024-03-20T23:39:32.910Z,22.40
2024-03-20T23:42:02.826Z,25.40
2024-03-20T23:44:31.476Z,24.90
2024-03-20T23:47:00.191Z,24.80
2024-03-20T23:49:29.128Z,23.70
2024-03-20T23:51:58.223Z,24.30
2024-03-20T23:54:26.999Z,24.10
2024-03-20T23:56:55.665Z,24.70
2024-03-20T23:59:24.454Z,23.30
